createdAt,value
2022-12-19T00:00:34.654Z,45.33
2022-12-19T00:03:01.405Z,45.25
2022-12-19T00:05:28.039Z,47.15
2022-12-19T00:08:04.649Z,45.65
2022-12-19T00:10:42.346Z,43.70
2022-12-19T00:13:11.986Z,44.78
2022-12-19T00:15:38.838Z,43.75
2022-12-19T00:18:05.784Z,46.20
2022-12-19T00:20:35.209Z,45.03
2022-12-19T00:23:02.803Z,46.17
2022-12-19T00:25:29.611Z,43.17
2022-12-19T00:27:57.448Z,44.55
2022-12-19T00:30:27.573Z,45.65
2022-12-19T00:32:54.448Z,45.05
2022-12-19T00:35:22.699Z,43.30
2022-12-19T00:37:49.908Z,46.33
2022-12-19T00:40:16.849Z,44.92
2022-12-19T00:42:50.073Z,46.50
2022-12-19T00:45:18.691Z,43.03
2022-12-19T00:47:45.498Z,43.90
2022-12-19T00:50:12.247Z,42.50
2022-12-19T00:52:39.412Z,41.17
2022-12-19T00:55:08.207Z,40.85
2022-12-19T00:57:59.611Z,41.42
2022-12-19T01:00:27.690Z,41.17
2022-12-19T01:02:54.606Z,39.88
2022-12-19T01:05:21.348Z,38.67
2022-12-19T01:07:48.070Z,41.00
2022-12-19T01:10:14.846Z,40.22
2022-12-19T01:12:47.446Z,41.40
2022-12-19T01:15:17.137Z,41.15
2022-12-19T01:17:45.044Z,41.80
2022-12-19T01:20:17.588Z,39.95
2022-12-19T01:22:47.089Z,42.17
2022-12-19T01:25:15.044Z,38.40
2022-12-19T01:27:44.631Z,40.92
2022-12-19T01:30:12.178Z,41.38
2022-12-19T01:32:39.277Z,41.40
2022-12-19T01:35:06.286Z,42.92
2022-12-19T01:37:36.598Z,40.25
2022-12-19T01:40:03.343Z,41.17
2022-12-19T01:42:39.415Z,42.15
2022-12-19T01:45:12.129Z,40.75
2022-12-19T01:47:53.445Z,42.08
2022-12-19T01:51:11.940Z,40.15
2022-12-19T01:53:49.339Z,42.42
2022-12-19T01:56:27.597Z,41.05
2022-12-19T01:59:06.616Z,41.55
2022-12-19T02:04:16.778Z,45.92
2022-12-19T02:06:43.664Z,41.60
2022-12-19T02:09:11.573Z,40.10
2022-12-19T02:11:38.576Z,41.92
2022-12-19T02:14:05.394Z,40.58
2022-12-19T02:17:02.778Z,40.40
2022-12-19T02:19:54.011Z,41.08
2022-12-19T02:22:27.042Z,40.75
2022-12-19T02:25:39.698Z,41.40
2022-12-19T02:28:36.759Z,40.00
2022-12-19T02:31:28.725Z,40.80
2022-12-19T02:34:19.372Z,41.15
2022-12-19T02:36:48.671Z,40.17
2022-12-19T02:39:45.641Z,40.70
2022-12-19T02:42:16.638Z,41.03
2022-12-19T02:44:53.007Z,38.10
2022-12-19T02:47:36.851Z,39.65
2022-12-19T02:50:07.753Z,37.58
2022-12-19T02:52:34.452Z,36.42
2022-12-19T02:55:07.789Z,34.28
2022-12-19T02:57:51.320Z,35.08
2022-12-19T03:00:27.166Z,33.03
2022-12-19T03:03:17.235Z,34.55
2022-12-19T03:05:57.288Z,32.92
2022-12-19T03:08:31.616Z,34.72
2022-12-19T03:11:05.424Z,32.22
2022-12-19T03:13:40.377Z,33.00
2022-12-19T03:16:10.311Z,31.05
2022-12-19T03:18:38.571Z,32.60
2022-12-19T03:21:29.356Z,32.00
2022-12-19T03:23:59.008Z,30.75
2022-12-19T03:26:40.997Z,31.75
2022-12-19T03:29:26.679Z,34.05
2022-12-19T03:32:02.951Z,36.22
2022-12-19T03:34:34.244Z,36.30
2022-12-19T03:37:08.331Z,35.75
2022-12-19T03:39:35.745Z,36.00
2022-12-19T03:42:26.601Z,36.75
2022-12-19T03:45:02.210Z,38.72
2022-12-19T03:47:40.252Z,38.33
2022-12-19T03:50:08.193Z,39.85
2022-12-19T03:52:59.729Z,41.10
2022-12-19T03:55:51.540Z,40.90
2022-12-19T03:58:28.448Z,40.38
2022-12-19T04:00:57.756Z,39.55
2022-12-19T04:03:26.477Z,39.17
2022-12-19T04:05:54.744Z,39.67
2022-12-19T04:08:21.560Z,36.38
2022-12-19T04:10:59.508Z,37.75
2022-12-19T04:13:43.291Z,37.15
2022-12-19T04:16:44.542Z,35.15
2022-12-19T04:19:35.591Z,36.03
2022-12-19T04:22:33.327Z,33.75
2022-12-19T04:25:04.450Z,33.08
2022-12-19T04:27:34.277Z,33.28
2022-12-19T04:30:02.474Z,33.63
2022-12-19T04:32:32.885Z,35.15
2022-12-19T04:35:03.383Z,34.17
2022-12-19T04:37:31.527Z,33.67
2022-12-19T04:39:58.585Z,33.75
2022-12-19T04:42:26.707Z,32.55
2022-12-19T04:44:53.304Z,33.42
2022-12-19T04:47:21.529Z,33.38
2022-12-19T04:49:48.171Z,32.35
2022-12-19T04:52:15.003Z,31.40
2022-12-19T04:54:41.769Z,31.25
2022-12-19T04:57:08.897Z,29.63
2022-12-19T04:59:46.630Z,28.10
2022-12-19T05:02:13.591Z,25.13
2022-12-19T05:04:40.306Z,26.13
2022-12-19T05:07:07.083Z,24.95
2022-12-19T05:09:34.216Z,25.45
2022-12-19T05:12:03.083Z,26.08
2022-12-19T05:14:29.828Z,25.92
2022-12-19T05:17:01.574Z,25.83
2022-12-19T05:19:38.033Z,27.20
2022-12-19T05:22:04.889Z,27.42
2022-12-19T05:24:31.603Z,27.40
2022-12-19T05:26:58.734Z,24.75
2022-12-19T05:29:25.442Z,26.98
2022-12-19T05:31:52.597Z,27.77
2022-12-19T05:34:19.236Z,26.73
2022-12-19T05:36:48.912Z,29.15
2022-12-19T05:39:15.728Z,27.77
2022-12-19T05:41:46.313Z,29.85
2022-12-19T05:44:15.613Z,27.35
2022-12-19T05:46:42.362Z,25.55
2022-12-19T05:49:09.140Z,26.17
2022-12-19T05:51:35.965Z,26.75
2022-12-19T05:54:02.748Z,24.05
2022-12-19T05:56:35.075Z,23.85
2022-12-19T05:59:01.864Z,24.13
2022-12-19T06:01:31.964Z,25.15
2022-12-19T06:04:00.369Z,26.67
2022-12-19T06:06:30.573Z,27.92
2022-12-19T06:09:00.503Z,31.13
2022-12-19T06:11:28.779Z,33.03
2022-12-19T06:13:58.457Z,33.55
2022-12-19T06:16:25.256Z,35.42
2022-12-19T06:18:53.395Z,37.95
2022-12-19T06:21:24.766Z,36.67
2022-12-19T06:23:54.208Z,37.10
2022-12-19T06:26:24.582Z,37.70
2022-12-19T06:28:54.972Z,39.08
2022-12-19T06:31:23.736Z,41.08
2022-12-19T06:33:58.310Z,37.38
2022-12-19T06:36:27.393Z,40.42
2022-12-19T06:38:55.458Z,39.88
2022-12-19T06:41:40.739Z,41.47
2022-12-19T06:44:12.174Z,40.17
2022-12-19T06:46:40.201Z,44.67
2022-12-19T06:49:08.011Z,40.95
2022-12-19T06:51:35.356Z,42.75
2022-12-19T06:54:02.419Z,43.75
2022-12-19T06:56:35.104Z,43.53
2022-12-19T06:59:04.936Z,42.78
2022-12-19T07:01:32.203Z,43.35
2022-12-19T07:04:00.673Z,44.03
2022-12-19T07:06:28.404Z,44.28
2022-12-19T07:08:55.181Z,40.95
2022-12-19T07:11:21.929Z,43.47
2022-12-19T07:13:48.585Z,42.20
2022-12-19T07:16:17.654Z,44.92
2022-12-19T07:18:44.716Z,44.10
2022-12-19T07:21:14.593Z,43.47
2022-12-19T07:23:42.892Z,42.95
2022-12-19T07:26:10.098Z,42.78
2022-12-19T07:28:37.963Z,42.17
2022-12-19T07:31:05.269Z,45.67
2022-12-19T07:33:32.079Z,47.08
2022-12-19T07:36:01.806Z,45.35
2022-12-19T07:38:36.968Z,46.35
2022-12-19T07:41:06.025Z,45.92
2022-12-19T07:43:32.922Z,47.22
2022-12-19T07:46:00.375Z,48.25
2022-12-19T07:48:32.894Z,46.03
2022-12-19T07:51:05.607Z,44.78
2022-12-19T07:53:34.958Z,47.85
2022-12-19T07:56:03.988Z,46.60
2022-12-19T07:58:30.956Z,45.47
2022-12-19T08:00:59.041Z,44.80
2022-12-19T08:03:28.385Z,42.40
2022-12-19T08:06:01.473Z,42.78
2022-12-19T08:08:28.743Z,42.42
2022-12-19T08:10:59.071Z,40.58
2022-12-19T08:13:30.032Z,41.92
2022-12-19T08:16:06.360Z,44.33
2022-12-19T08:18:35.552Z,40.00
2022-12-19T08:21:03.331Z,40.83
2022-12-19T08:23:30.282Z,41.60
2022-12-19T08:26:11.231Z,42.30
2022-12-19T08:28:38.620Z,41.63
2022-12-19T08:31:11.108Z,42.38
2022-12-19T08:33:39.051Z,41.95
2022-12-19T08:36:08.309Z,40.92
2022-12-19T08:38:35.930Z,41.22
2022-12-19T08:41:04.107Z,41.60
2022-12-19T08:43:31.900Z,43.60
2022-12-19T08:45:59.776Z,43.90
2022-12-19T08:48:29.717Z,41.30
2022-12-19T08:50:58.871Z,43.92
2022-12-19T08:53:28.237Z,43.08
2022-12-19T08:56:00.212Z,42.10
2022-12-19T08:58:29.415Z,42.78
2022-12-19T09:01:06.269Z,44.80
2022-12-19T09:03:50.106Z,44.17
2022-12-19T09:06:24.480Z,42.92
2022-12-19T09:08:51.448Z,43.33
2022-12-19T09:11:20.982Z,43.20
2022-12-19T09:13:51.494Z,46.58
2022-12-19T09:16:23.991Z,44.28
2022-12-19T09:18:55.555Z,44.53
2022-12-19T09:21:24.109Z,43.30
2022-12-19T09:23:59.410Z,45.60
2022-12-19T09:26:33.710Z,44.45
2022-12-19T09:29:01.082Z,42.20
2022-12-19T09:31:29.532Z,42.17
2022-12-19T09:34:00.657Z,42.53
2022-12-19T09:36:27.615Z,42.75
2022-12-19T09:39:04.029Z,44.05
2022-12-19T09:41:41.214Z,43.97
2022-12-19T09:44:26.760Z,43.20
2022-12-19T09:47:02.566Z,41.70
2022-12-19T09:49:36.718Z,40.95
2022-12-19T09:52:35.250Z,44.40
2022-12-19T09:55:16.847Z,44.47
2022-12-19T09:57:57.963Z,42.80
2022-12-19T10:03:14.996Z,41.53
2022-12-19T10:07:10.475Z,41.22
2022-12-19T10:10:18.267Z,38.78
2022-12-19T10:12:40.653Z,40.45
2022-12-19T10:15:26.196Z,42.45
2022-12-19T10:18:20.672Z,42.20
2022-12-19T10:21:15.684Z,41.58
2022-12-19T10:24:01.640Z,42.42
2022-12-19T10:27:05.696Z,43.85
2022-12-19T10:29:57.296Z,41.00
2022-12-19T10:32:33.329Z,42.67
2022-12-19T10:35:03.843Z,43.88
2022-12-19T10:37:47.438Z,45.38
2022-12-19T10:40:41.539Z,44.28
2022-12-19T10:43:28.582Z,43.63
2022-12-19T10:46:04.047Z,44.42
2022-12-19T10:48:31.785Z,46.92
2022-12-19T10:51:00.625Z,48.17
2022-12-19T10:53:36.062Z,48.83
2022-12-19T10:56:19.091Z,46.05
2022-12-19T10:58:52.539Z,47.50
2022-12-19T11:01:54.241Z,48.65
2022-12-19T11:04:37.599Z,47.40
2022-12-19T11:07:20.592Z,49.83
2022-12-19T11:10:32.231Z,50.47
2022-12-19T11:16:50.001Z,47.88
2022-12-19T11:20:35.852Z,50.17
2022-12-19T11:28:12.299Z,52.25
2022-12-19T11:29:33.290Z,49.88
2022-12-19T11:29:53.430Z,52.00
2022-12-19T11:30:46.079Z,53.43
2022-12-19T11:32:20.542Z,54.28
2022-12-19T11:33:36.516Z,51.95
2022-12-19T11:36:06.554Z,52.90
2022-12-19T11:38:53.040Z,52.92
2022-12-19T11:41:38.664Z,51.20
2022-12-19T11:44:16.731Z,53.58
2022-12-19T11:46:47.208Z,51.00
2022-12-19T11:49:29.128Z,49.65
2022-12-19T11:52:23.750Z,50.88
2022-12-19T11:55:06.619Z,47.08
2022-12-19T11:57:33.766Z,47.55
2022-12-19T12:00:04.969Z,44.08
2022-12-19T12:02:57.348Z,45.08
2022-12-19T12:05:33.420Z,45.70
2022-12-19T12:10:44.877Z,44.95
2022-12-19T12:15:28.089Z,41.50
2022-12-19T12:21:44.148Z,42.92
2022-12-19T12:31:23.724Z,43.05
2022-12-19T12:31:49.432Z,44.03
2022-12-19T12:31:49.436Z,43.58
2022-12-19T12:32:02.522Z,45.03
2022-12-19T12:35:38.457Z,44.28
2022-12-19T12:40:09.933Z,45.78
2022-12-19T12:42:40.892Z,46.65
2022-12-19T12:45:20.181Z,45.00
2022-12-19T12:47:52.287Z,42.80
2022-12-19T12:52:58.435Z,45.03
2022-12-19T12:55:40.354Z,45.15
2022-12-19T12:58:46.439Z,47.28
2022-12-19T13:01:17.606Z,44.55
2022-12-19T13:03:56.355Z,47.17
2022-12-19T13:06:33.826Z,47.70
2022-12-19T13:09:09.701Z,46.67
2022-12-19T13:12:19.231Z,44.25
2022-12-19T13:14:50.896Z,47.13
2022-12-19T13:17:33.950Z,50.45
2022-12-19T13:20:03.411Z,48.83
2022-12-19T13:22:30.335Z,48.83
2022-12-19T13:24:59.203Z,48.20
2022-12-19T13:27:35.426Z,49.00
2022-12-19T13:30:12.826Z,48.20
2022-12-19T13:32:39.851Z,47.60
2022-12-19T13:37:11.219Z,46.75
2022-12-19T13:39:56.172Z,45.40
2022-12-19T13:41:59.784Z,42.38
2022-12-19T13:44:32.531Z,44.65
2022-12-19T13:46:59.397Z,42.75
2022-12-19T13:49:33.243Z,46.45
2022-12-19T13:52:05.269Z,46.67
2022-12-19T13:54:45.589Z,47.72
2022-12-19T13:57:22.102Z,46.10
2022-12-19T13:59:59.996Z,48.60
2022-12-19T14:02:45.297Z,44.97
2022-12-19T14:06:16.267Z,45.78
2022-12-19T14:08:31.630Z,46.63
2022-12-19T14:11:41.040Z,45.95
2022-12-19T14:14:20.424Z,46.88
2022-12-19T14:16:50.643Z,49.15
2022-12-19T14:19:29.053Z,47.63
2022-12-19T14:22:25.720Z,47.58
2022-12-19T14:28:22.286Z,46.60
2022-12-19T14:28:23.323Z,46.45
2022-12-19T14:31:02.963Z,46.95
2022-12-19T14:33:59.158Z,48.05
2022-12-19T14:36:32.805Z,45.05
2022-12-19T14:39:23.277Z,43.97
2022-12-19T14:42:10.252Z,45.17
2022-12-19T14:52:34.613Z,42.72
2022-12-19T14:54:13.005Z,43.25
2022-12-19T14:54:24.478Z,42.58
2022-12-19T14:54:42.092Z,44.88
2022-12-19T14:56:56.105Z,44.67
2022-12-19T14:59:37.358Z,42.42
2022-12-19T15:02:07.911Z,44.70
2022-12-19T15:04:55.045Z,45.53
2022-12-19T15:07:28.731Z,44.05
2022-12-19T15:11:06.146Z,44.22
2022-12-19T15:14:56.535Z,43.92
2022-12-19T15:16:05.683Z,42.75
2022-12-19T15:18:33.075Z,42.08
2022-12-19T15:21:12.371Z,45.45
2022-12-19T15:23:43.095Z,43.58
2022-12-19T15:26:29.482Z,41.88
2022-12-19T15:28:58.160Z,41.08
2022-12-19T15:31:33.394Z,41.75
2022-12-19T15:36:53.520Z,42.40
2022-12-19T15:39:22.265Z,42.13
2022-12-19T15:42:01.610Z,40.70
2022-12-19T15:44:40.378Z,39.75
2022-12-19T15:47:20.180Z,41.25
2022-12-19T15:49:50.605Z,40.17
2022-12-19T15:52:20.142Z,42.08
2022-12-19T15:55:03.476Z,39.60
2022-12-19T15:57:39.883Z,40.22
2022-12-19T16:00:15.952Z,42.35
2022-12-19T16:03:21.232Z,40.83
2022-12-19T16:05:29.980Z,46.35
2022-12-19T16:07:58.991Z,47.72
2022-12-19T16:10:31.768Z,45.83
2022-12-19T16:13:01.247Z,45.33
2022-12-19T16:15:42.049Z,43.88
2022-12-19T16:18:14.020Z,46.15
2022-12-19T16:20:44.890Z,45.63
2022-12-19T16:23:12.942Z,45.10
2022-12-19T16:25:52.344Z,44.15
2022-12-19T16:28:28.519Z,44.25
2022-12-19T16:30:59.752Z,46.33
2022-12-19T16:33:31.663Z,47.10
2022-12-19T16:36:04.712Z,45.35
2022-12-19T16:38:34.606Z,48.20
2022-12-19T16:41:04.450Z,48.25
2022-12-19T16:43:45.033Z,44.90
2022-12-19T16:46:24.677Z,46.38
2022-12-19T16:48:55.848Z,46.38
2022-12-19T16:51:25.692Z,47.07
2022-12-19T16:53:54.994Z,45.15
2022-12-19T16:56:31.167Z,49.08
2022-12-19T16:59:01.256Z,47.05
2022-12-19T17:01:35.037Z,44.28
2022-12-19T17:04:02.002Z,46.83
2022-12-19T17:06:39.209Z,45.28
2022-12-19T17:09:06.277Z,46.03
2022-12-19T17:11:33.318Z,44.40
2022-12-19T17:14:05.979Z,44.35
2022-12-19T17:16:35.874Z,45.90
2022-12-19T17:19:06.256Z,43.55
2022-12-19T17:21:33.057Z,45.10
2022-12-19T17:24:07.461Z,44.90
2022-12-19T17:26:35.956Z,45.33
2022-12-19T17:29:04.920Z,44.97
2022-12-19T17:31:41.173Z,47.85
2022-12-19T17:34:31.626Z,46.45
2022-12-19T17:37:17.220Z,44.17
2022-12-19T17:39:43.966Z,46.33
2022-12-19T17:42:24.772Z,45.63
2022-12-19T17:44:54.637Z,46.00
2022-12-19T17:47:22.453Z,45.83
2022-12-19T17:49:49.960Z,46.00
2022-12-19T17:52:19.148Z,47.97
2022-12-19T17:54:48.796Z,45.88
2022-12-19T17:57:17.387Z,46.20
2022-12-19T17:59:52.626Z,47.13
2022-12-19T18:02:24.533Z,43.78
2022-12-19T18:04:52.462Z,44.70
2022-12-19T18:07:25.293Z,44.38
2022-12-19T18:09:52.209Z,48.05
2022-12-19T18:12:19.483Z,44.28
2022-12-19T18:14:46.101Z,46.10
2022-12-19T18:17:16.329Z,45.30
2022-12-19T18:19:45.942Z,43.22
2022-12-19T18:22:14.423Z,45.25
2022-12-19T18:24:41.279Z,43.95
2022-12-19T18:27:07.915Z,47.45
2022-12-19T18:29:43.179Z,45.13
2022-12-19T18:32:19.219Z,44.85
2022-12-19T18:34:48.525Z,45.58
2022-12-19T18:37:16.062Z,46.88
2022-12-19T18:39:42.911Z,45.53
2022-12-19T18:42:20.476Z,45.13
2022-12-19T18:44:47.258Z,43.85
2022-12-19T18:47:23.616Z,46.28
2022-12-19T18:49:52.506Z,42.78
2022-12-19T18:52:22.345Z,42.58
2022-12-19T18:54:49.209Z,44.38
2022-12-19T18:57:17.873Z,43.22
2022-12-19T18:59:44.709Z,40.28
2022-12-19T19:02:31.094Z,41.75
2022-12-19T19:04:59.487Z,42.85
2022-12-19T19:07:29.798Z,42.47
2022-12-19T19:09:56.768Z,44.20
2022-12-19T19:12:26.681Z,41.53
2022-12-19T19:14:53.362Z,42.97
2022-12-19T19:17:36.903Z,43.05
2022-12-19T19:20:04.075Z,43.58
2022-12-19T19:22:30.997Z,43.50
2022-12-19T19:25:01.869Z,42.00
2022-12-19T19:27:29.359Z,43.00
2022-12-19T19:29:56.185Z,44.65
2022-12-19T19:32:23.381Z,42.30
2022-12-19T19:34:50.282Z,42.80
2022-12-19T19:37:18.324Z,44.70
2022-12-19T19:39:45.358Z,41.67
2022-12-19T19:42:15.417Z,46.88
2022-12-19T19:44:44.313Z,42.67
2022-12-19T19:47:11.402Z,40.75
2022-12-19T19:49:38.819Z,40.72
2022-12-19T19:52:05.889Z,41.35
2022-12-19T19:54:37.699Z,40.08
2022-12-19T19:57:05.377Z,41.20
2022-12-19T19:59:33.215Z,40.17
2022-12-19T20:02:03.209Z,39.80
2022-12-19T20:04:30.397Z,42.55
2022-12-19T20:07:00.494Z,39.45
2022-12-19T20:09:28.756Z,38.25
2022-12-19T20:11:57.298Z,39.45
2022-12-19T20:14:25.931Z,38.83
2022-12-19T20:16:53.570Z,38.53
2022-12-19T20:19:20.459Z,37.60
2022-12-19T20:21:47.295Z,39.13
2022-12-19T20:24:20.426Z,37.55
2022-12-19T20:26:47.405Z,37.92
2022-12-19T20:29:14.255Z,38.45
2022-12-19T20:31:42.703Z,39.35
2022-12-19T20:34:12.433Z,36.67
2022-12-19T20:36:42.665Z,37.70
2022-12-19T20:39:09.599Z,37.03
2022-12-19T20:41:38.723Z,36.70
2022-12-19T20:44:07.930Z,36.75
2022-12-19T20:46:37.305Z,37.05
2022-12-19T20:49:07.434Z,37.15
2022-12-19T20:51:37.044Z,36.05
2022-12-19T20:54:05.059Z,36.00
2022-12-19T20:56:32.258Z,37.25
2022-12-19T20:58:59.461Z,34.65
2022-12-19T21:01:35.857Z,37.03
2022-12-19T21:04:06.169Z,36.72
2022-12-19T21:06:40.509Z,40.20
2022-12-19T21:09:07.721Z,38.53
2022-12-19T21:11:37.016Z,38.40
2022-12-19T21:14:10.275Z,38.83
2022-12-19T21:16:38.139Z,37.95
2022-12-19T21:19:08.027Z,39.65
2022-12-19T21:21:34.921Z,40.28
2022-12-19T21:24:05.542Z,38.95
2022-12-19T21:26:32.660Z,39.67
2022-12-19T21:28:59.771Z,38.75
2022-12-19T21:31:34.944Z,39.30
2022-12-19T21:34:02.723Z,39.45
2022-12-19T21:36:43.993Z,38.28
2022-12-19T21:39:14.440Z,38.10
2022-12-19T21:41:41.823Z,38.75
2022-12-19T21:44:15.375Z,38.80
2022-12-19T21:46:47.279Z,38.17
2022-12-19T21:49:15.532Z,39.80
2022-12-19T21:51:42.205Z,39.33
2022-12-19T21:54:09.815Z,36.92
2022-12-19T21:56:40.673Z,39.75
2022-12-19T21:59:16.105Z,37.40
2022-12-19T22:01:46.471Z,38.22
2022-12-19T22:04:22.196Z,37.50
2022-12-19T22:06:51.444Z,37.72
2022-12-19T22:09:22.447Z,37.78
2022-12-19T22:12:09.670Z,38.17
2022-12-19T22:14:36.577Z,36.38
2022-12-19T22:17:05.684Z,38.08
2022-12-19T22:19:41.950Z,38.65
2022-12-19T22:22:15.862Z,36.78
2022-12-19T22:24:45.662Z,37.53
2022-12-19T22:27:16.911Z,38.38
2022-12-19T22:29:46.856Z,35.53
2022-12-19T22:32:13.800Z,34.65
2022-12-19T22:34:42.499Z,37.65
2022-12-19T22:37:09.311Z,35.95
2022-12-19T22:39:36.131Z,38.70
2022-12-19T22:42:11.501Z,36.83
2022-12-19T22:44:38.740Z,37.05
2022-12-19T22:47:08.078Z,37.47
2022-12-19T22:49:37.547Z,36.25
2022-12-19T22:52:06.770Z,35.05
2022-12-19T22:54:36.874Z,36.22
2022-12-19T22:57:06.532Z,35.90
2022-12-19T22:59:33.409Z,35.90
2022-12-19T23:02:00.577Z,34.83
2022-12-19T23:04:27.897Z,35.67
2022-12-19T23:06:54.699Z,35.95
2022-12-19T23:09:29.188Z,35.30
2022-12-19T23:11:55.925Z,36.58
2022-12-19T23:17:31.509Z,37.47
2022-12-19T23:22:38.273Z,35.63
2022-12-19T23:25:06.043Z,36.85
2022-12-19T23:27:42.042Z,38.17
2022-12-19T23:30:14.226Z,38.45
2022-12-19T23:32:50.683Z,34.97
2022-12-19T23:35:22.492Z,38.80
2022-12-19T23:37:49.674Z,38.65
2022-12-19T23:40:17.520Z,42.65
2022-12-19T23:42:45.268Z,41.38
2022-12-19T23:45:12.247Z,39.55
2022-12-19T23:47:40.440Z,37.47
2022-12-19T23:50:27.027Z,37.75
2022-12-19T23:52:53.842Z,38.58
2022-12-19T23:55:23.558Z,38.55
2022-12-19T23:57:55.740Z,37.20
